createdAt,value
2024-02-28T00:00:44.876Z,39.00
2024-02-28T00:03:11.667Z,38.75
2024-02-28T00:05:38.411Z,34.75
2024-02-28T00:08:05.433Z,33.25
2024-02-28T00:10:33.522Z,29.75
2024-02-28T00:13:01.029Z,37.75
2024-02-28T00:15:27.837Z,44.00
2024-02-28T00:17:56.103Z,43.00
2024-02-28T00:20:22.951Z,31.50
2024-02-28T00:22:49.581Z,41.00
2024-02-28T00:25:17.069Z,40.75
2024-02-28T00:27:43.881Z,41.00
2024-02-28T00:30:10.925Z,32.75
2024-02-28T00:32:37.589Z,32.25
2024-02-28T00:35:05.278Z,32.25
2024-02-28T00:37:32.512Z,26.25
2024-02-28T00:39:59.128Z,39.25
2024-02-28T00:42:25.886Z,37.50
2024-02-28T00:44:52.519Z,34.00
2024-02-28T00:47:19.207Z,29.00
2024-02-28T00:49:45.925Z,19.50
2024-02-28T00:52:12.607Z,29.25
2024-02-28T00:54:39.323Z,21.25
2024-02-28T00:57:06.016Z,36.00
2024-02-28T00:59:32.666Z,34.00
2024-02-28T01:01:59.310Z,35.00
2024-02-28T01:04:25.986Z,34.25
2024-02-28T01:06:52.649Z,30.25
2024-02-28T01:09:20.254Z,39.00
2024-02-28T01:11:47.062Z,39.00
2024-02-28T01:14:13.853Z,33.25
2024-02-28T01:16:40.528Z,38.50
2024-02-28T01:19:07.160Z,42.50
2024-02-28T01:21:34.318Z,43.75
2024-02-28T01:24:00.980Z,34.25
2024-02-28T01:26:27.701Z,39.00
2024-02-28T01:28:54.339Z,39.25
2024-02-28T01:31:20.987Z,33.75
2024-02-28T01:33:47.786Z,36.00
2024-02-28T01:36:14.828Z,35.00
2024-02-28T01:38:41.509Z,38.50
2024-02-28T01:41:08.857Z,35.00
2024-02-28T01:43:35.582Z,39.75
2024-02-28T01:46:08.273Z,42.50
2024-02-28T01:48:35.238Z,46.25
2024-02-28T01:51:02.201Z,41.25
2024-02-28T01:53:28.859Z,44.50
2024-02-28T01:55:56.041Z,54.00
2024-02-28T01:58:23.062Z,51.67
2024-02-28T02:00:50.640Z,48.25
2024-02-28T02:03:17.807Z,53.67
2024-02-28T02:05:45.469Z,50.67
2024-02-28T02:08:12.757Z,50.00
2024-02-28T02:10:39.571Z,57.33
2024-02-28T02:13:07.255Z,52.00
2024-02-28T02:15:34.093Z,52.00
2024-02-28T02:18:00.994Z,46.00
2024-02-28T02:20:33.487Z,44.75
2024-02-28T02:23:00.174Z,47.75
2024-02-28T02:25:26.836Z,49.00
2024-02-28T02:27:53.560Z,41.25
2024-02-28T02:30:20.325Z,37.50
2024-02-28T02:32:46.994Z,34.75
2024-02-28T02:35:13.721Z,37.00
2024-02-28T02:37:46.838Z,34.00
2024-02-28T02:40:13.759Z,33.25
2024-02-28T02:42:40.792Z,36.00
2024-02-28T02:45:07.922Z,36.75
2024-02-28T02:47:34.539Z,25.75
2024-02-28T02:50:01.230Z,30.50
2024-02-28T02:52:27.900Z,33.75
2024-02-28T02:54:54.572Z,30.00
2024-02-28T02:57:21.777Z,32.00
2024-02-28T02:59:48.453Z,32.75
2024-02-28T03:02:15.083Z,30.75
2024-02-28T03:04:41.719Z,30.00
2024-02-28T03:07:08.374Z,36.75
2024-02-28T03:09:35.410Z,23.75
2024-02-28T03:12:02.082Z,21.00
2024-02-28T03:14:28.732Z,30.50
2024-02-28T03:16:55.324Z,27.25
2024-02-28T03:19:22.359Z,25.25
2024-02-28T03:21:49.100Z,21.00
2024-02-28T03:24:15.818Z,32.25
2024-02-28T03:26:43.601Z,18.25
2024-02-28T03:29:10.371Z,19.00
2024-02-28T03:31:37.037Z,24.75
2024-02-28T03:34:03.838Z,21.00
2024-02-28T03:36:30.881Z,22.00
2024-02-28T03:38:57.579Z,19.25
2024-02-28T03:41:24.206Z,21.50
2024-02-28T03:43:50.879Z,20.00
2024-02-28T03:46:17.541Z,17.25
2024-02-28T03:48:44.195Z,16.00
2024-02-28T03:51:10.838Z,23.00
2024-02-28T03:53:37.473Z,23.25
2024-02-28T03:56:04.769Z,8.50
2024-02-28T03:58:31.454Z,16.00
2024-02-28T04:00:58.150Z,22.75
2024-02-28T04:03:24.861Z,34.25
2024-02-28T04:05:51.582Z,30.50
2024-02-28T04:08:18.232Z,48.67
2024-02-28T04:10:44.971Z,52.00
2024-02-28T04:13:11.709Z,47.25
2024-02-28T04:15:39.437Z,46.00
2024-02-28T04:18:06.228Z,39.50
2024-02-28T04:20:34.396Z,30.50
2024-02-28T04:23:00.997Z,34.75
2024-02-28T04:25:27.621Z,48.00
2024-02-28T04:27:54.334Z,48.67
2024-02-28T04:30:21.149Z,48.25
2024-02-28T04:32:47.820Z,46.50
2024-02-28T04:35:16.725Z,43.75
2024-02-28T04:37:43.331Z,36.00
2024-02-28T04:40:10.647Z,38.75
2024-02-28T04:42:37.350Z,35.00
2024-02-28T04:45:04.208Z,46.25
2024-02-28T04:47:36.666Z,46.25
2024-02-28T04:50:10.926Z,48.00
2024-02-28T04:52:37.561Z,45.00
2024-02-28T04:55:04.399Z,46.75
2024-02-28T04:57:31.205Z,49.50
2024-02-28T04:59:57.855Z,50.25
2024-02-28T05:02:25.484Z,50.00
2024-02-28T05:04:52.162Z,49.67
2024-02-28T05:07:18.826Z,47.00
2024-02-28T05:09:45.641Z,52.33
2024-02-28T05:12:15.267Z,48.67
2024-02-28T05:14:42.000Z,42.50
2024-02-28T05:17:08.647Z,44.00
2024-02-28T05:19:35.349Z,32.50
2024-02-28T05:22:02.903Z,33.75
2024-02-28T05:24:30.172Z,26.50
2024-02-28T05:26:56.890Z,28.25
2024-02-28T05:29:23.586Z,21.25
2024-02-28T05:31:50.199Z,21.00
2024-02-28T05:34:17.799Z,18.25
2024-02-28T05:36:44.693Z,17.00
2024-02-28T05:39:11.404Z,20.00
2024-02-28T05:41:38.074Z,14.75
2024-02-28T05:44:04.724Z,37.00
2024-02-28T05:46:31.946Z,39.50
2024-02-28T05:48:58.783Z,38.00
2024-02-28T05:51:25.535Z,43.50
2024-02-28T05:53:52.386Z,35.00
2024-02-28T05:56:21.130Z,37.25
2024-02-28T05:58:48.979Z,30.75
2024-02-28T06:01:19.950Z,38.00
2024-02-28T06:03:48.529Z,43.75
2024-02-28T06:06:15.554Z,48.00
2024-02-28T06:08:42.380Z,50.00
2024-02-28T06:11:09.678Z,49.50
2024-02-28T06:13:37.207Z,50.33
2024-02-28T06:16:04.751Z,47.00
2024-02-28T06:18:34.814Z,42.50
2024-02-28T06:21:02.511Z,55.67
2024-02-28T06:23:30.245Z,48.75
2024-02-28T06:25:58.523Z,43.00
2024-02-28T06:28:25.643Z,38.25
2024-02-28T06:30:52.585Z,33.75
2024-02-28T06:33:19.991Z,38.75
2024-02-28T06:35:46.788Z,43.75
2024-02-28T06:38:13.430Z,36.75
2024-02-28T06:40:40.213Z,35.00
2024-02-28T06:43:06.976Z,30.00
2024-02-28T06:45:33.728Z,21.50
2024-02-28T06:48:00.576Z,26.75
2024-02-28T06:50:27.294Z,16.75
2024-02-28T06:52:55.091Z,19.75
2024-02-28T06:55:22.228Z,21.75
2024-02-28T06:57:49.235Z,22.00
2024-02-28T07:00:17.438Z,36.25
2024-02-28T07:02:44.673Z,40.25
2024-02-28T07:05:11.761Z,43.25
2024-02-28T07:07:38.687Z,51.00
2024-02-28T07:10:06.315Z,46.50
2024-02-28T07:12:33.323Z,45.00
2024-02-28T07:15:00.288Z,48.00
2024-02-28T07:17:27.010Z,46.25
2024-02-28T07:19:53.700Z,40.00
2024-02-28T07:22:20.645Z,28.50
2024-02-28T07:24:47.413Z,41.75
2024-02-28T07:27:14.117Z,46.25
2024-02-28T07:29:40.805Z,48.50
2024-02-28T07:32:07.809Z,45.00
2024-02-28T07:34:35.112Z,48.25
2024-02-28T07:37:02.078Z,43.25
2024-02-28T07:39:31.226Z,45.25
2024-02-28T07:41:57.892Z,55.00
2024-02-28T07:44:24.491Z,41.25
2024-02-28T07:46:54.102Z,42.50
2024-02-28T07:49:20.726Z,48.50
2024-02-28T07:51:47.585Z,55.33
2024-02-28T07:54:14.372Z,54.33
2024-02-28T07:56:41.188Z,51.25
2024-02-28T07:59:08.021Z,50.50
2024-02-28T08:01:35.437Z,44.50
2024-02-28T08:04:03.567Z,43.25
2024-02-28T08:06:30.474Z,35.75
2024-02-28T08:08:57.205Z,33.50
2024-02-28T08:11:24.651Z,30.75
2024-02-28T08:13:51.398Z,31.50
2024-02-28T08:16:18.258Z,32.50
2024-02-28T08:18:45.704Z,31.75
2024-02-28T08:21:12.529Z,32.00
2024-02-28T08:23:39.715Z,39.50
2024-02-28T08:26:06.451Z,38.25
2024-02-28T08:28:33.166Z,40.50
2024-02-28T08:31:00.321Z,37.00
2024-02-28T08:33:27.382Z,45.00
2024-02-28T08:35:55.131Z,43.00
2024-02-28T08:38:22.098Z,52.00
2024-02-28T08:40:48.795Z,49.00
2024-02-28T08:43:15.474Z,40.50
2024-02-28T08:45:42.245Z,37.25
2024-02-28T08:48:09.033Z,39.00
2024-02-28T08:50:36.158Z,36.75
2024-02-28T08:53:04.556Z,37.25
2024-02-28T08:55:32.325Z,37.75
2024-02-28T08:57:59.569Z,38.50
2024-02-28T09:00:26.698Z,36.75
2024-02-28T09:02:53.475Z,32.50
2024-02-28T09:05:20.238Z,26.25
2024-02-28T09:07:52.342Z,31.00
2024-02-28T09:10:25.161Z,32.25
2024-02-28T09:12:52.278Z,23.25
2024-02-28T09:15:19.291Z,26.75
2024-02-28T09:17:46.096Z,17.75
2024-02-28T09:20:13.269Z,21.75
2024-02-28T09:22:40.030Z,13.50
2024-02-28T09:25:09.851Z,22.75
2024-02-28T09:27:37.815Z,27.00
2024-02-28T09:30:04.970Z,25.50
2024-02-28T09:32:31.729Z,16.00
2024-02-28T09:34:58.412Z,24.75
2024-02-28T09:37:26.249Z,19.00
2024-02-28T09:39:53.841Z,16.75
2024-02-28T09:42:21.493Z,17.50
2024-02-28T09:44:49.199Z,17.00
2024-02-28T09:47:16.016Z,25.25
2024-02-28T09:49:44.486Z,25.50
2024-02-28T09:52:11.284Z,20.75
2024-02-28T09:54:38.070Z,19.00
2024-02-28T09:57:05.562Z,23.25
2024-02-28T09:59:42.787Z,24.00
2024-02-28T10:02:21.658Z,29.25
2024-02-28T10:04:48.724Z,32.75
2024-02-28T10:07:15.915Z,19.50
2024-02-28T10:09:43.504Z,13.75
2024-02-28T10:12:10.918Z,11.75
2024-02-28T10:14:37.706Z,14.50
2024-02-28T10:17:04.669Z,13.50
2024-02-28T10:19:31.363Z,18.50
2024-02-28T10:21:58.289Z,20.00
2024-02-28T10:24:28.108Z,22.50
2024-02-28T10:26:57.704Z,21.25
2024-02-28T10:29:25.831Z,17.75
2024-02-28T10:32:01.848Z,20.50
2024-02-28T10:34:28.501Z,23.25
2024-02-28T10:36:55.256Z,44.75
2024-02-28T10:39:23.576Z,52.00
2024-02-28T10:41:53.351Z,41.00
2024-02-28T10:44:21.845Z,42.00
2024-02-28T10:46:51.495Z,40.00
2024-02-28T10:49:18.321Z,36.00
2024-02-28T10:51:47.371Z,33.75
2024-02-28T10:54:15.511Z,33.50
2024-02-28T10:56:43.979Z,28.25
2024-02-28T10:59:12.812Z,25.75
2024-02-28T11:01:45.989Z,22.50
2024-02-28T11:04:14.234Z,27.75
2024-02-28T11:06:52.006Z,29.25
2024-02-28T11:09:23.860Z,15.75
2024-02-28T11:11:53.955Z,24.25
2024-02-28T11:14:26.036Z,23.00
2024-02-28T11:17:06.181Z,25.75
2024-02-28T11:19:35.673Z,33.50
2024-02-28T11:22:04.966Z,28.75
2024-02-28T11:24:34.044Z,21.00
2024-02-28T11:27:00.904Z,24.50
2024-02-28T11:29:32.621Z,35.75
2024-02-28T11:31:59.485Z,33.75
2024-02-28T11:34:26.209Z,44.75
2024-02-28T11:36:54.450Z,44.25
2024-02-28T11:39:22.718Z,41.00
2024-02-28T11:41:50.008Z,36.75
2024-02-28T11:44:20.516Z,38.25
2024-02-28T11:46:48.599Z,45.00
2024-02-28T11:49:15.531Z,48.75
2024-02-28T11:51:46.390Z,49.25
2024-02-28T11:54:13.633Z,48.25
2024-02-28T11:56:41.600Z,50.75
2024-02-28T11:59:12.311Z,53.75
2024-02-28T12:01:45.748Z,53.25
2024-02-28T12:04:12.848Z,61.67
2024-02-28T12:06:40.852Z,73.33
2024-02-28T12:09:21.888Z,70.67
2024-02-28T12:11:54.688Z,73.67
2024-02-28T12:14:21.361Z,77.00
2024-02-28T12:16:49.963Z,75.67
2024-02-28T12:19:17.766Z,64.00
2024-02-28T12:21:44.524Z,62.00
2024-02-28T12:24:12.499Z,66.33
2024-02-28T12:26:40.308Z,60.33
2024-02-28T12:29:07.818Z,57.67
2024-02-28T12:31:34.770Z,74.67
2024-02-28T12:34:01.606Z,83.33
2024-02-28T12:36:28.759Z,85.33
2024-02-28T12:38:55.442Z,88.67
2024-02-28T12:41:22.196Z,76.33
2024-02-28T12:43:49.002Z,81.00
2024-02-28T12:46:15.648Z,85.00
2024-02-28T12:48:42.442Z,83.33
2024-02-28T12:51:14.655Z,74.67
2024-02-28T12:53:41.625Z,93.00
2024-02-28T12:56:08.314Z,84.67
2024-02-28T12:58:34.972Z,98.67
2024-02-28T13:01:02.325Z,87.67
2024-02-28T13:03:29.123Z,94.00
2024-02-28T13:05:55.869Z,90.00
2024-02-28T13:08:22.581Z,80.67
2024-02-28T13:10:49.643Z,84.67
2024-02-28T13:13:16.349Z,85.00
2024-02-28T13:15:44.061Z,80.00
2024-02-28T13:18:12.160Z,74.67
2024-02-28T13:20:39.317Z,77.33
2024-02-28T13:23:06.182Z,88.00
2024-02-28T13:25:32.846Z,74.67
2024-02-28T13:27:59.974Z,68.33
2024-02-28T13:30:26.744Z,71.33
2024-02-28T13:32:53.489Z,68.00
2024-02-28T13:35:20.246Z,70.00
2024-02-28T13:37:46.909Z,84.33
2024-02-28T13:40:14.298Z,78.00
2024-02-28T13:42:41.307Z,88.67
2024-02-28T13:45:08.478Z,89.00
2024-02-28T13:47:35.830Z,82.67
2024-02-28T13:50:03.733Z,77.00
2024-02-28T13:52:30.401Z,77.67
2024-02-28T13:54:57.167Z,80.67
2024-02-28T13:57:24.018Z,86.33
2024-02-28T13:59:52.848Z,78.67
2024-02-28T14:02:19.666Z,69.33
2024-02-28T14:04:49.972Z,74.00
2024-02-28T14:07:17.537Z,79.67
2024-02-28T14:09:47.558Z,91.33
2024-02-28T14:12:15.074Z,85.33
2024-02-28T14:14:41.871Z,67.33
2024-02-28T14:17:08.516Z,78.00
2024-02-28T14:19:36.781Z,87.67
2024-02-28T14:22:05.400Z,82.33
2024-02-28T14:24:32.194Z,84.67
2024-02-28T14:26:58.995Z,77.33
2024-02-28T14:29:25.703Z,82.33
2024-02-28T14:31:52.450Z,82.67
2024-02-28T14:34:19.123Z,77.33
2024-02-28T14:36:45.933Z,79.00
2024-02-28T14:39:16.655Z,75.33
2024-02-28T14:41:45.126Z,74.33
2024-02-28T14:44:16.750Z,74.33
2024-02-28T14:46:43.724Z,72.33
2024-02-28T14:49:11.357Z,69.33
2024-02-28T14:51:40.255Z,75.67
2024-02-28T14:54:07.641Z,74.33
2024-02-28T14:56:34.328Z,73.00
2024-02-28T14:59:01.012Z,74.00
2024-02-28T15:01:28.195Z,64.33
2024-02-28T15:03:55.296Z,66.00
2024-02-28T15:06:22.109Z,58.67
2024-02-28T15:08:49.985Z,64.00
2024-02-28T15:11:17.231Z,62.67
2024-02-28T15:13:44.017Z,58.00
2024-02-28T15:16:10.759Z,55.50
2024-02-28T15:18:37.789Z,55.33
2024-02-28T15:21:05.165Z,61.00
2024-02-28T15:23:32.514Z,59.67
2024-02-28T15:26:00.272Z,63.67
2024-02-28T15:28:28.328Z,60.33
2024-02-28T15:30:56.303Z,58.33
2024-02-28T15:33:23.440Z,58.00
2024-02-28T15:35:50.386Z,60.00
2024-02-28T15:38:17.048Z,57.00
2024-02-28T15:40:44.014Z,56.33
2024-02-28T15:43:10.717Z,54.00
2024-02-28T15:45:39.829Z,57.00
2024-02-28T15:48:06.851Z,50.75
2024-02-28T15:50:33.591Z,47.00
2024-02-28T15:53:00.268Z,51.25
2024-02-28T15:55:26.912Z,52.00
2024-02-28T15:57:56.464Z,53.00
2024-02-28T16:00:23.551Z,47.75
2024-02-28T16:02:50.431Z,57.67
2024-02-28T16:05:17.512Z,55.50
2024-02-28T16:07:45.177Z,56.00
2024-02-28T16:10:11.915Z,52.00
2024-02-28T16:12:38.719Z,54.25
2024-02-28T16:15:08.390Z,52.00
2024-02-28T16:17:35.546Z,50.50
2024-02-28T16:20:03.693Z,44.00
2024-02-28T16:22:30.791Z,53.67
2024-02-28T16:24:57.708Z,58.33
2024-02-28T16:27:24.532Z,54.25
2024-02-28T16:29:51.954Z,51.50
2024-02-28T16:32:19.481Z,49.00
2024-02-28T16:34:46.157Z,49.50
2024-02-28T16:37:13.035Z,48.25
2024-02-28T16:39:39.759Z,45.75
2024-02-28T16:42:06.856Z,52.75
2024-02-28T16:44:33.461Z,48.50
2024-02-28T16:47:00.110Z,51.00
2024-02-28T16:49:26.749Z,52.50
2024-02-28T16:51:53.476Z,56.75
2024-02-28T16:54:20.709Z,55.33
2024-02-28T16:56:47.949Z,52.50
2024-02-28T16:59:15.229Z,50.00
2024-02-28T17:01:42.844Z,45.25
2024-02-28T17:04:09.684Z,48.25
2024-02-28T17:06:36.459Z,50.25
2024-02-28T17:09:04.243Z,46.00
2024-02-28T17:11:31.010Z,44.50
2024-02-28T17:13:57.693Z,46.50
2024-02-28T17:16:24.405Z,42.50
2024-02-28T17:18:51.054Z,40.25
2024-02-28T17:21:17.768Z,39.00
2024-02-28T17:23:44.575Z,39.25
2024-02-28T17:26:12.769Z,41.00
2024-02-28T17:28:39.438Z,50.25
2024-02-28T17:31:06.138Z,51.75
2024-02-28T17:33:32.805Z,39.25
2024-02-28T17:35:59.424Z,36.00
2024-02-28T17:38:26.085Z,34.50
2024-02-28T17:40:52.723Z,40.25
2024-02-28T17:43:20.740Z,36.75
2024-02-28T17:45:48.149Z,37.75
2024-02-28T17:48:16.681Z,33.00
2024-02-28T17:50:43.482Z,32.75
2024-02-28T17:53:10.319Z,37.25
2024-02-28T17:55:36.908Z,43.50
2024-02-28T17:58:03.687Z,49.00
2024-02-28T18:00:32.434Z,47.00
2024-02-28T18:02:59.238Z,48.00
2024-02-28T18:05:25.930Z,45.00
2024-02-28T18:07:54.679Z,44.25
2024-02-28T18:10:21.951Z,47.00
2024-02-28T18:12:48.994Z,52.25
2024-02-28T18:15:17.298Z,47.75
2024-02-28T18:17:44.315Z,45.75
2024-02-28T18:20:11.518Z,49.50
2024-02-28T18:22:38.164Z,52.00
2024-02-28T18:25:05.480Z,54.00
2024-02-28T18:27:32.301Z,57.00
2024-02-28T18:29:59.010Z,54.25
2024-02-28T18:32:25.720Z,50.50
2024-02-28T18:34:53.546Z,50.00
2024-02-28T18:37:20.628Z,51.00
2024-02-28T18:39:47.497Z,50.33
2024-02-28T18:42:14.199Z,50.75
2024-02-28T18:44:40.910Z,46.50
2024-02-28T18:47:07.666Z,8.00
2024-02-28T18:49:34.896Z,47.00
2024-02-28T18:52:01.736Z,43.50
2024-02-28T18:54:29.309Z,40.25
2024-02-28T18:56:56.139Z,48.50
2024-02-28T18:59:23.208Z,46.00
2024-02-28T19:01:51.215Z,41.25
2024-02-28T19:04:18.277Z,44.75
2024-02-28T19:06:46.403Z,48.00
2024-02-28T19:09:13.156Z,44.25
2024-02-28T19:11:39.893Z,50.75
2024-02-28T19:14:06.624Z,46.00
2024-02-28T19:16:33.277Z,48.00
2024-02-28T19:18:59.968Z,47.00
2024-02-28T19:21:26.735Z,47.50
2024-02-28T19:23:53.480Z,47.25
2024-02-28T19:26:20.125Z,43.50
2024-02-28T19:28:46.835Z,47.00
2024-02-28T19:31:14.646Z,49.75
2024-02-28T19:33:41.750Z,47.75
2024-02-28T19:36:08.710Z,39.75
2024-02-28T19:38:35.368Z,42.50
2024-02-28T19:41:02.319Z,48.00
2024-02-28T19:43:28.971Z,47.75
2024-02-28T19:45:55.659Z,48.00
2024-02-28T19:48:22.300Z,45.50
2024-02-28T19:50:49.237Z,45.75
2024-02-28T19:53:15.876Z,43.25
2024-02-28T19:55:42.577Z,43.50
2024-02-28T19:58:09.324Z,44.00
2024-02-28T20:00:36.828Z,50.00
2024-02-28T20:03:04.458Z,47.50
2024-02-28T20:05:31.282Z,50.00
2024-02-28T20:07:57.930Z,48.00
2024-02-28T20:10:24.605Z,44.25
2024-02-28T20:12:51.332Z,45.25
2024-02-28T20:15:18.296Z,40.50
2024-02-28T20:17:45.497Z,45.00
2024-02-28T20:20:12.287Z,44.00
2024-02-28T20:22:38.923Z,45.25
2024-02-28T20:25:06.154Z,42.50
2024-02-28T20:27:32.894Z,39.00
2024-02-28T20:29:59.546Z,44.00
2024-02-28T20:32:26.324Z,44.75
2024-02-28T20:34:52.988Z,43.00
2024-02-28T20:37:22.626Z,43.75
2024-02-28T20:39:50.066Z,45.50
2024-02-28T20:42:16.858Z,44.00
2024-02-28T20:44:43.677Z,44.00
2024-02-28T20:47:10.718Z,45.50
2024-02-28T20:49:37.808Z,45.50
2024-02-28T20:52:04.861Z,39.75
2024-02-28T20:54:31.647Z,42.75
2024-02-28T20:57:05.870Z,38.25
2024-02-28T20:59:39.131Z,39.75
2024-02-28T21:02:06.219Z,35.50
2024-02-28T21:04:34.755Z,34.25
2024-02-28T21:07:01.420Z,35.00
2024-02-28T21:09:28.223Z,33.00
2024-02-28T21:12:04.811Z,31.25
2024-02-28T21:14:31.540Z,39.25
2024-02-28T21:16:59.021Z,30.25
2024-02-28T21:19:26.763Z,30.00
2024-02-28T21:21:53.605Z,21.25
2024-02-28T21:24:20.302Z,19.25
2024-02-28T21:26:47.093Z,22.00
2024-02-28T21:29:13.840Z,19.75
2024-02-28T21:31:40.823Z,21.50
2024-02-28T21:34:08.061Z,29.00
2024-02-28T21:36:37.422Z,35.75
2024-02-28T21:39:09.730Z,30.50
2024-02-28T21:41:36.601Z,32.50
2024-02-28T21:44:03.430Z,26.50
2024-02-28T21:46:30.062Z,28.25
2024-02-28T21:49:02.965Z,27.75
2024-02-28T21:51:36.497Z,25.75
2024-02-28T21:54:03.168Z,23.25
2024-02-28T21:56:29.764Z,17.25
2024-02-28T21:58:56.423Z,22.25
2024-02-28T22:01:23.178Z,22.25
2024-02-28T22:03:51.372Z,24.25
2024-02-28T22:06:18.029Z,17.50
2024-02-28T22:08:44.661Z,14.25
2024-02-28T22:11:11.310Z,22.00
2024-02-28T22:13:38.017Z,12.75
2024-02-28T22:16:05.123Z,24.00
2024-02-28T22:18:31.841Z,31.00
2024-02-28T22:20:58.535Z,29.25
2024-02-28T22:23:25.324Z,25.00
2024-02-28T22:25:52.008Z,21.50
2024-02-28T22:28:19.436Z,26.50
2024-02-28T22:30:46.447Z,34.00
2024-02-28T22:33:13.392Z,31.50
2024-02-28T22:35:41.132Z,31.00
2024-02-28T22:38:08.245Z,32.00
2024-02-28T22:40:35.468Z,35.25
2024-02-28T22:43:02.425Z,30.25
2024-02-28T22:45:29.237Z,28.00
2024-02-28T22:47:55.952Z,27.00
2024-02-28T22:50:22.683Z,29.25
2024-02-28T22:52:49.484Z,28.00
2024-02-28T22:55:20.786Z,27.50
2024-02-28T22:57:48.203Z,28.25
2024-02-28T23:00:31.484Z,23.00
2024-02-28T23:03:02.419Z,30.75
2024-02-28T23:05:29.733Z,37.50
2024-02-28T23:07:57.395Z,32.25
2024-02-28T23:10:24.042Z,32.25
2024-02-28T23:12:56.207Z,27.25
2024-02-28T23:15:23.997Z,34.50
2024-02-28T23:17:57.055Z,26.50
2024-02-28T23:20:31.012Z,25.25
2024-02-28T23:22:58.524Z,22.50
2024-02-28T23:25:25.343Z,25.75
2024-02-28T23:27:54.713Z,25.25
2024-02-28T23:30:22.064Z,19.00
2024-02-28T23:32:49.170Z,20.00
2024-02-28T23:35:16.147Z,21.00
2024-02-28T23:37:43.020Z,15.00
2024-02-28T23:40:10.337Z,14.25
2024-02-28T23:42:37.510Z,22.25
2024-02-28T23:45:06.012Z,19.00
2024-02-28T23:47:32.735Z,18.75
2024-02-28T23:49:59.426Z,18.25
2024-02-28T23:52:26.067Z,18.25
2024-02-28T23:54:52.762Z,14.50
2024-02-28T23:57:19.526Z,17.25
2024-02-28T23:59:46.841Z,19.00
